| time (UTC) | temp C | wind direction | speed KPH | gust KPH | rain 1hr cm | rain 24hr cm | rain mn cm | humidity % | barometer mb |
| 20260503213032 | 33 | 313 | 3.2 | 12.9 | 0.00 | 0.00 | 0.00 | 26 | 1008.2 |
| 20260503212513 | 33 | 338 | 1.6 | 11.3 | 0.00 | 0.00 | 0.00 | 26 | 1008.3 |
| 20260503212012 | 33 | 332 | 1.6 | 12.9 | 0.00 | 0.00 | 0.00 | 26 | 1008.3 |
| 20260503211529 | 33 | 317 | 3.2 | 12.9 | 0.00 | 0.00 | 0.00 | 28 | 1008.5 |
| 20260503211011 | 33 | 343 | 3.2 | 9.7 | 0.00 | 0.00 | 0.00 | 29 | 1008.5 |
| 20260503210515 | 32 | 325 | 3.2 | 11.3 | 0.00 | 0.00 | 0.00 | 28 | 1008.6 |
| 20260503210030 | 32 | 288 | 1.6 | 14.5 | 0.00 | 0.00 | 0.00 | 28 | 1008.7 |
| 20260503205514 | 32 | 326 | 3.2 | 14.5 | 0.00 | 0.00 | 0.00 | 29 | 1008.7 |
| 20260503205014 | 32 | 342 | 1.6 | 11.3 | 0.00 | 0.00 | 0.00 | 31 | 1008.8 |
| 20260503204529 | 32 | 17 | 1.6 | 11.3 | 0.00 | 0.00 | 0.00 | 30 | 1008.8 |
| 20260503204013 | 32 | 0 | 1.6 | 12.9 | 0.00 | 0.00 | 0.00 | 31 | 1008.9 |
| 20260503203516 | 31 | 329 | 4.8 | 12.9 | 0.00 | 0.00 | 0.00 | 33 | 1008.9 |
| 20260503203041 | 31 | 293 | 1.6 | 12.9 | 0.00 | 0.00 | 0.00 | 33 | 1009.0 |
| 20260503202514 | 31 | 302 | 4.8 | 16.1 | 0.00 | 0.00 | 0.00 | 34 | 1009.1 |
| 20260503202013 | 31 | 266 | 4.8 | 16.1 | 0.00 | 0.00 | 0.00 | 34 | 1009.1 |
| 20260503201534 | 31 | 5 | 1.6 | 9.7 | 0.00 | 0.00 | 0.00 | 36 | 1009.2 |
| 20260503201013 | 31 | 5 | 3.2 | 9.7 | 0.00 | 0.00 | 0.00 | 35 | 1009.2 |
| 20260503200513 | 31 | 302 | 3.2 | 14.5 | 0.00 | 0.00 | 0.00 | 35 | 1009.3 |
| 20260503200035 | 30 | 99 | 3.2 | 14.5 | 0.00 | 0.00 | 0.00 | 36 | 1009.4 |
| 20260503195513 | 30 | 336 | 1.6 | 11.3 | 0.00 | 0.00 | 0.00 | 36 | 1009.3 |
| 20260503195013 | 30 | 334 | 3.2 | 9.7 | 0.00 | 0.00 | 0.00 | 36 | 1009.4 |
| 20260503194529 | 30 | 253 | 3.2 | 9.7 | 0.00 | 0.00 | 0.00 | 37 | 1009.4 |
| 20260503194013 | 30 | 316 | 1.6 | 9.7 | 0.00 | 0.00 | 0.00 | 37 | 1009.5 |
| 20260503193513 | 29 | 264 | 3.2 | 9.7 | 0.00 | 0.00 | 0.00 | 38 | 1009.6 |
| 20260503193029 | 29 | 0 | 1.6 | 12.9 | 0.00 | 0.00 | 0.00 | 39 | 1009.6 |
| 20260503192515 | 29 | 303 | 3.2 | 12.9 | 0.00 | 0.00 | 0.00 | 37 | 1009.8 |
| 20260503192014 | 29 | 17 | 3.2 | 9.7 | 0.00 | 0.00 | 0.00 | 39 | 1009.8 |
| 20260503191530 | 28 | 55 | 1.6 | 8.0 | 0.00 | 0.00 | 0.00 | 39 | 1009.8 |
| 20260503191014 | 28 | 5 | 1.6 | 9.7 | 0.00 | 0.00 | 0.00 | 40 | 1009.9 |
| 20260503190520 | 27 | 5 | 3.2 | 12.9 | 0.00 | 0.00 | 0.00 | 40 | 1009.9 |
| 20260503190037 | 27 | 5 | 3.2 | 12.9 | 0.00 | 0.00 | 0.00 | 40 | 1010.0 |
| 20260503185510 | 27 | 306 | 3.2 | 14.5 | 0.00 | 0.00 | 0.00 | 40 | 1010.0 |
| 20260503185013 | 27 | 53 | 4.8 | 14.5 | 0.00 | 0.00 | 0.00 | 41 | 1010.1 |
| 20260503184530 | 27 | 337 | 3.2 | 12.9 | 0.00 | 0.00 | 0.00 | 43 | 1010.1 |
| 20260503184012 | 26 | 278 | 3.2 | 14.5 | 0.00 | 0.00 | 0.00 | 43 | 1010.2 |
| 20260503183512 | 26 | 316 | 3.2 | 14.5 | 0.00 | 0.00 | 0.00 | 43 | 1010.2 |
| 20260503183030 | 26 | 250 | 3.2 | 14.5 | 0.00 | 0.00 | 0.00 | 45 | 1010.3 |
| 20260503182516 | 26 | 18 | 3.2 | 14.5 | 0.00 | 0.00 | 0.00 | 44 | 1010.4 |
| 20260503182011 | 25 | 5 | 3.2 | 14.5 | 0.00 | 0.00 | 0.00 | 45 | 1010.4 |
| 20260503181530 | 25 | 352 | 1.6 | 14.5 | 0.00 | 0.00 | 0.00 | 47 | 1010.5 |
| 20260503181013 | 25 | 325 | 3.2 | 14.5 | 0.00 | 0.00 | 0.00 | 45 | 1010.5 |
| 20260503180515 | 25 | 312 | 3.2 | 12.9 | 0.00 | 0.00 | 0.00 | 46 | 1010.7 |
| 20260503180032 | 25 | 0 | 1.6 | 12.9 | 0.00 | 0.00 | 0.00 | 47 | 1010.7 |
| 20260503175514 | 25 | 332 | 1.6 | 12.9 | 0.00 | 0.00 | 0.00 | 49 | 1010.8 |
| 20260503175013 | 24 | 288 | 3.2 | 12.9 | 0.00 | 0.00 | 0.00 | 47 | 1010.8 |
| 20260503174534 | 24 | 42 | 1.6 | 12.9 | 0.00 | 0.00 | 0.00 | 49 | 1010.9 |
| 20260503174016 | 23 | 323 | 1.6 | 12.9 | 0.00 | 0.00 | 0.00 | 49 | 1010.9 |
| 20260503173514 | 23 | 336 | 4.8 | 14.5 | 0.00 | 0.00 | 0.00 | 49 | 1011.0 |
| 20260503173050 | 23 | 343 | 4.8 | 14.5 | 0.00 | 0.00 | 0.00 | 49 | 1011.0 |
| 20260503172514 | 23 | 329 | 4.8 | 14.5 | 0.00 | 0.00 | 0.00 | 49 | 1011.0 |
| 20260503172011 | 23 | 329 | 3.2 | 12.9 | 0.00 | 0.00 | 0.00 | 51 | 1011.0 |
| 20260503171536 | 23 | 0 | 1.6 | 8.0 | 0.00 | 0.00 | 0.00 | 53 | 1011.0 |
| 20260503171016 | 22 | 340 | 1.6 | 11.3 | 0.00 | 0.00 | 0.00 | 53 | 1011.1 |
| 20260503170513 | 22 | 340 | 1.6 | 11.3 | 0.00 | 0.00 | 0.00 | 54 | 1011.1 |
| 20260503151013 | 17 | 0 | 0.0 | 4.8 | 0.00 | 0.00 | 0.00 | 72 | 1011.6 |
| 20260503150514 | 16 | 348 | 1.6 | 4.8 | 0.00 | 0.00 | 0.00 | 73 | 1011.5 |
| 20260503131013 | 13 | 0 | 0.0 | 0.0 | 0.00 | 0.00 | 0.00 | 83 | 1011.2 |
| 20260503130517 | 13 | 0 | 0.0 | 0.0 | 0.00 | 0.00 | 0.00 | 83 | 1011.2 |
| 20260503110513 | 14 | 0 | 0.0 | 0.0 | 0.00 | 0.00 | 0.00 | 81 | 1011.4 |
| 20260503081532 | 15 | 0 | 0.0 | 0.0 | 0.00 | 0.00 | 0.00 | 82 | 1011.6 |
| 20260503081014 | 15 | 0 | 0.0 | 0.0 | 0.00 | 0.00 | 0.00 | 82 | 1011.5 |
| 20260503080514 | 15 | 0 | 0.0 | 0.0 | 0.00 | 0.00 | 0.00 | 82 | 1011.5 |
| 20260503072514 | 15 | 0 | 0.0 | 0.0 | 0.00 | 0.00 | 0.00 | 80 | 1011.7 |
| 20260503072014 | 15 | 0 | 0.0 | 0.0 | 0.00 | 0.00 | 0.00 | 80 | 1011.7 |
| 20260503071531 | 15 | 0 | 0.0 | 0.0 | 0.00 | 0.00 | 0.00 | 80 | 1011.7 |
| 20260503071013 | 15 | 0 | 0.0 | 0.0 | 0.00 | 0.00 | 0.00 | 80 | 1011.7 |
| 20260503070517 | 15 | 0 | 0.0 | 0.0 | 0.00 | 0.00 | 0.00 | 80 | 1011.7 |
| 20260503055013 | 16 | 0 | 0.0 | 3.2 | 0.00 | 0.00 | 0.00 | 76 | 1011.5 |
| 20260503054531 | 16 | 0 | 0.0 | 3.2 | 0.00 | 0.00 | 0.00 | 75 | 1011.5 |
| 20260503054013 | 16 | 0 | 0.0 | 3.2 | 0.00 | 0.00 | 0.00 | 75 | 1011.5 |
| 20260503053514 | 16 | 0 | 0.0 | 3.2 | 0.00 | 0.00 | 0.00 | 75 | 1011.7 |
| 20260503053030 | 16 | 0 | 0.0 | 3.2 | 0.00 | 0.00 | 0.00 | 75 | 1011.7 |
| 20260503052516 | 16 | 290 | 0.0 | 4.8 | 0.00 | 0.00 | 0.00 | 75 | 1011.6 |
| 20260503052014 | 16 | 0 | 0.0 | 4.8 | 0.00 | 0.00 | 0.00 | 75 | 1011.6 |
| 20260503051531 | 17 | 0 | 0.0 | 4.8 | 0.00 | 0.00 | 0.00 | 74 | 1011.7 |
| 20260503051014 | 17 | 0 | 0.0 | 4.8 | 0.00 | 0.00 | 0.00 | 74 | 1011.8 |
| 20260503050515 | 17 | 0 | 0.0 | 0.0 | 0.00 | 0.00 | 0.00 | 74 | 1012.0 |
| 20260503050032 | 17 | 0 | 0.0 | 0.0 | 0.00 | 0.00 | 0.00 | 73 | 1012.0 |
| 20260503045514 | 17 | 0 | 0.0 | 0.0 | 0.00 | 0.00 | 0.00 | 73 | 1012.2 |
| 20260503045013 | 17 | 0 | 0.0 | 0.0 | 0.00 | 0.00 | 0.00 | 73 | 1012.1 |
| 20260503044534 | 17 | 0 | 0.0 | 0.0 | 0.00 | 0.00 | 0.00 | 73 | 1012.0 |
| 20260503044013 | 17 | 0 | 0.0 | 0.0 | 0.00 | 0.00 | 0.00 | 73 | 1012.0 |
| 20260503043513 | 17 | 0 | 0.0 | 0.0 | 0.00 | 0.00 | 0.00 | 73 | 1011.9 |
| 20260503043032 | 17 | 0 | 0.0 | 0.0 | 0.00 | 0.00 | 0.00 | 72 | 1011.8 |
| 20260503042510 | 17 | 0 | 0.0 | 0.0 | 0.00 | 0.00 | 0.00 | 72 | 1011.7 |
| 20260503042011 | 17 | 0 | 0.0 | 3.2 | 0.00 | 0.00 | 0.00 | 71 | 1011.7 |
| 20260503041533 | 18 | 0 | 0.0 | 3.2 | 0.00 | 0.00 | 0.00 | 70 | 1011.7 |
| 20260503041014 | 18 | 0 | 0.0 | 3.2 | 0.00 | 0.00 | 0.00 | 70 | 1011.7 |
| 20260503040513 | 18 | 0 | 0.0 | 3.2 | 0.00 | 0.00 | 0.00 | 69 | 1011.8 |
| 20260503040033 | 18 | 174 | 0.0 | 3.2 | 0.00 | 0.00 | 0.00 | 70 | 1011.8 |
| 20260503035513 | 18 | 172 | 0.0 | 8.0 | 0.00 | 0.00 | 0.00 | 69 | 1011.8 |
| 20260503035015 | 18 | 0 | 0.0 | 8.0 | 0.00 | 0.00 | 0.00 | 69 | 1011.6 |
| 20260503034530 | 18 | 192 | 1.6 | 8.0 | 0.00 | 0.00 | 0.00 | 68 | 1011.5 |
| 20260503034014 | 18 | 0 | 0.0 | 4.8 | 0.00 | 0.00 | 0.00 | 67 | 1011.5 |
| 20260503033515 | 18 | 0 | 0.0 | 4.8 | 0.00 | 0.00 | 0.00 | 67 | 1011.3 |
| 20260503033049 | 18 | 94 | 0.0 | 6.4 | 0.00 | 0.00 | 0.00 | 68 | 1011.4 |
| 20260503032515 | 19 | 0 | 0.0 | 8.0 | 0.00 | 0.00 | 0.00 | 67 | 1011.2 |
| 20260503032014 | 19 | 331 | 1.6 | 14.5 | 0.00 | 0.00 | 0.00 | 66 | 1011.1 |
| 20260503031536 | 18 | 325 | 3.2 | 17.7 | 0.00 | 0.00 | 0.00 | 66 | 1011.1 |
| 20260503031014 | 18 | 198 | 4.8 | 17.7 | 0.00 | 0.00 | 0.00 | 67 | 1011.1 |
| 20260503030514 | 18 | 126 | 4.8 | 17.7 | 0.00 | 0.00 | 0.00 | 67 | 1011.0 |
| 20260503030029 | 18 | 254 | 6.4 | 19.3 | 0.00 | 0.00 | 0.00 | 68 | 1011.1 |
| 20260503025513 | 18 | 161 | 9.7 | 19.3 | 0.00 | 0.00 | 0.00 | 68 | 1011.1 |
| 20260503025015 | 18 | 167 | 6.4 | 25.7 | 0.00 | 0.00 | 0.00 | 68 | 1011.0 |
| 20260503024532 | 18 | 169 | 11.3 | 25.7 | 0.00 | 0.00 | 0.00 | 67 | 1011.0 |
| 20260503024011 | 19 | 148 | 4.8 | 20.9 | 0.00 | 0.00 | 0.00 | 66 | 1011.0 |
| 20260503023512 | 19 | 202 | 11.3 | 22.5 | 0.00 | 0.00 | 0.00 | 66 | 1011.1 |
| 20260503023042 | 20 | 175 | 4.8 | 22.5 | 0.00 | 0.00 | 0.00 | 65 | 1010.9 |
| 20260503022513 | 20 | 196 | 6.4 | 20.9 | 0.00 | 0.00 | 0.00 | 64 | 1011.0 |
| 20260503022018 | 21 | 159 | 6.4 | 17.7 | 0.00 | 0.00 | 0.00 | 62 | 1010.9 |
| 20260503021532 | 21 | 216 | 4.8 | 17.7 | 0.00 | 0.00 | 0.00 | 61 | 1011.0 |
| 20260503021014 | 21 | 237 | 8.0 | 19.3 | 0.00 | 0.00 | 0.00 | 62 | 1011.0 |
| 20260503020514 | 21 | 171 | 8.0 | 19.3 | 0.00 | 0.00 | 0.00 | 60 | 1010.7 |
| 20260503020030 | 22 | 197 | 3.2 | 11.3 | 0.00 | 0.00 | 0.00 | 59 | 1010.5 |
| 20260503015514 | 22 | 167 | 3.2 | 11.3 | 0.00 | 0.00 | 0.00 | 58 | 1010.4 |
| 20260503015013 | 22 | 173 | 1.6 | 6.4 | 0.00 | 0.00 | 0.00 | 58 | 1010.4 |
| 20260503014530 | 22 | 166 | 0.0 | 6.4 | 0.00 | 0.00 | 0.00 | 57 | 1010.3 |
| 20260503014014 | 22 | 159 | 1.6 | 3.2 | 0.00 | 0.00 | 0.00 | 56 | 1010.3 |
| 20260503013514 | 23 | 157 | 0.0 | 4.8 | 0.00 | 0.00 | 0.00 | 55 | 1010.2 |
| 20260503013030 | 22 | 156 | 1.6 | 4.8 | 0.00 | 0.00 | 0.00 | 55 | 1010.3 |
| 20260503012512 | 23 | 0 | 0.0 | 3.2 | 0.00 | 0.00 | 0.00 | 54 | 1010.2 |
| 20260503012013 | 23 | 310 | 0.0 | 4.8 | 0.00 | 0.00 | 0.00 | 52 | 1010.1 |
| 20260503011533 | 23 | 300 | 1.6 | 6.4 | 0.00 | 0.00 | 0.00 | 53 | 1010.2 |
| 20260503011016 | 23 | 0 | 0.0 | 6.4 | 0.00 | 0.00 | 0.00 | 52 | 1010.2 |
| 20260503010514 | 23 | 269 | 1.6 | 6.4 | 0.00 | 0.00 | 0.00 | 52 | 1010.3 |
| 20260503010032 | 23 | 316 | 0.0 | 4.8 | 0.00 | 0.00 | 0.00 | 53 | 1010.2 |
| 20260503005513 | 24 | 305 | 1.6 | 6.4 | 0.00 | 0.00 | 0.00 | 51 | 1010.2 |
| 20260503005017 | 24 | 329 | 1.6 | 6.4 | 0.00 | 0.00 | 0.00 | 52 | 1010.2 |
| 20260503004556 | 24 | 0 | 0.0 | 6.4 | 0.00 | 0.00 | 0.00 | 52 | 1010.2 |
| 20260503004011 | 24 | 306 | 1.6 | 6.4 | 0.00 | 0.00 | 0.00 | 51 | 1010.2 |
| 20260503003513 | 23 | 286 | 0.0 | 4.8 | 0.00 | 0.00 | 0.00 | 53 | 1010.2 |
| 20260503003030 | 23 | 0 | 0.0 | 4.8 | 0.00 | 0.00 | 0.00 | 53 | 1010.2 |
| 20260503002519 | 23 | 0 | 1.6 | 4.8 | 0.00 | 0.00 | 0.00 | 52 | 1010.2 |
| 20260503002015 | 23 | 304 | 1.6 | 4.8 | 0.00 | 0.00 | 0.00 | 52 | 1010.2 |
| 20260503001532 | 23 | 0 | 1.6 | 6.4 | 0.00 | 0.00 | 0.00 | 53 | 1010.3 |
| 20260503001011 | 23 | 0 | 0.0 | 6.4 | 0.00 | 0.00 | 0.00 | 53 | 1010.3 |
| 20260503000510 | 23 | 280 | 1.6 | 6.4 | 0.00 | 0.00 | 0.00 | 53 | 1010.3 |
| 20260503000030 | 22 | 0 | 0.0 | 6.4 | 0.00 | 0.00 | 0.00 | 55 | 1010.4 |
| 20260502235513 | 22 | 313 | 1.6 | 6.4 | 0.00 | 0.00 | 0.00 | 54 | 1010.4 |
| 20260502235013 | 22 | 344 | 1.6 | 9.7 | 0.00 | 0.00 | 0.00 | 53 | 1010.5 |
| 20260502234529 | 22 | 288 | 1.6 | 9.7 | 0.00 | 0.00 | 0.00 | 53 | 1010.6 |
| 20260502234014 | 22 | 338 | 0.0 | 9.7 | 0.00 | 0.00 | 0.00 | 54 | 1010.7 |
| 20260502233513 | 22 | 278 | 1.6 | 11.3 | 0.00 | 0.00 | 0.00 | 53 | 1010.8 |
| 20260502233034 | 22 | 321 | 3.2 | 11.3 | 0.00 | 0.00 | 0.00 | 53 | 1010.8 |
| 20260502232514 | 22 | 310 | 0.0 | 9.7 | 0.00 | 0.00 | 0.00 | 56 | 1010.9 |
| 20260502232014 | 22 | 288 | 1.6 | 9.7 | 0.00 | 0.00 | 0.00 | 54 | 1011.0 |
| 20260502231530 | 22 | 319 | 1.6 | 6.4 | 0.00 | 0.00 | 0.00 | 55 | 1011.1 |
| 20260502231014 | 21 | 327 | 3.2 | 6.4 | 0.00 | 0.00 | 0.00 | 55 | 1011.2 |
| 20260502230514 | 21 | 0 | 1.6 | 9.7 | 0.00 | 0.00 | 0.00 | 57 | 1011.3 |
| 20260502230030 | 21 | 256 | 3.2 | 9.7 | 0.00 | 0.00 | 0.00 | 55 | 1011.3 |
| 20260502225515 | 21 | 339 | 3.2 | 8.0 | 0.00 | 0.00 | 0.00 | 56 | 1011.4 |
| 20260502225016 | 21 | 0 | 1.6 | 8.0 | 0.00 | 0.00 | 0.00 | 55 | 1011.5 |
| 20260502224530 | 22 | 319 | 1.6 | 8.0 | 0.00 | 0.00 | 0.00 | 55 | 1011.6 |
| 20260502224013 | 22 | 316 | 1.6 | 9.7 | 0.00 | 0.00 | 0.00 | 54 | 1011.7 |
| 20260502223513 | 22 | 0 | 1.6 | 9.7 | 0.00 | 0.00 | 0.00 | 55 | 1011.8 |
| 20260502223033 | 22 | 352 | 1.6 | 9.7 | 0.00 | 0.00 | 0.00 | 55 | 1011.9 |
| 20260502222513 | 22 | 351 | 1.6 | 9.7 | 0.00 | 0.00 | 0.00 | 53 | 1011.9 |
| 20260502222013 | 22 | 121 | 3.2 | 9.7 | 0.00 | 0.00 | 0.00 | 53 | 1011.9 |
| 20260502221532 | 22 | 71 | 1.6 | 8.0 | 0.00 | 0.00 | 0.00 | 55 | 1012.0 |
| 20260502221014 | 22 | 345 | 3.2 | 9.7 | 0.00 | 0.00 | 0.00 | 53 | 1012.1 |
| 20260502220511 | 22 | 321 | 3.2 | 9.7 | 0.00 | 0.00 | 0.00 | 54 | 1012.2 |
| 20260502220031 | 22 | 270 | 3.2 | 9.7 | 0.00 | 0.00 | 0.00 | 54 | 1012.4 |
| 20260502215514 | 21 | 337 | 1.6 | 12.9 | 0.00 | 0.00 | 0.00 | 54 | 1012.4 |
| 20260502215013 | 22 | 34 | 0.0 | 12.9 | 0.00 | 0.00 | 0.00 | 54 | 1012.4 |
| 20260502214530 | 21 | 288 | 4.8 | 12.9 | 0.00 | 0.00 | 0.00 | 54 | 1012.5 |
| 20260502214014 | 21 | 0 | 1.6 | 11.3 | 0.00 | 0.00 | 0.00 | 55 | 1012.4 |
| 20260502213514 | 21 | 0 | 3.2 | 11.3 | 0.00 | 0.00 | 0.00 | 54 | 1012.5 |